Jerry Torok — WDI4934 — position and weather

sailwx.info

Track history (hours):
 
Tides and Currents Weather Stations Pressure Air Temp Water Temp Dewpoint Dewpoint Depression Visibility Wind Speed Wind Dir Waves Ship Positions

Jerry Torok

Owner: American Commercial Lines LLC, Jeffersonville, IN. More information available from US FCC via Universal Licensing System and Coast Guard Vessel Documentation Center.

Last reported at 2017-Nov-14 19:30 UTC. Time now 2017-Nov-19 03:27 UTC.
Position N 29°33' W 090°28'.

Length 22 m.

Type: Tug. MMSI: 367703560.

Date/timePositionNaut miles runAvg speedWind from/ knotsBaromVisibWave heightAir tempDewpointWater temp
2017-Nov-14 19:30N 29°33' W 090°28'2 4.5
2017-Nov-14 19:00N 29°34' W 090°31'3 5.0
2017-Nov-14 18:30N 29°34' W 090°33'2 4.3
2017-Nov-14 18:00N 29°35' W 090°36'2 3.2
2017-Nov-14 17:30N 29°35' W 090°37'2 4.5
2017-Nov-14 17:00N 29°36' W 090°40'2 3.6
2017-Nov-14 16:30N 29°37' W 090°42'2 3.1
2017-Nov-14 16:00N 29°35' W 090°43'2 3.6
2017-Nov-14 15:30N 29°34' W 090°44'2 4.6
2017-Nov-14 15:00N 29°32' W 090°46'2 5.0
2017-Nov-14 14:30N 29°32' W 090°49'3 5.3
2017-Nov-14 13:59N 29°32' W 090°52'3 5.2
2017-Nov-14 13:30N 29°33' W 090°54'3 5.2
2017-Nov-14 12:52N 29°35' W 090°58'55 4.0
2017-Nov-13 23:11N 29°50' W 091°58'1 5.0
2017-Nov-13 22:59N 29°50' W 091°59'3 5.4
2017-Nov-13 22:30N 29°49' W 092°02'3 5.1
2017-Nov-13 22:00N 29°48' W 092°05'66 3.1
2017-Nov-13 00:25N 30°06' W 093°19'2 4.6
2017-Nov-12 23:57N 30°05' W 093°20'2 3.7
2017-Nov-12 23:29N 30°04' W 093°22'3 4.4
2017-Nov-12 22:49N 30°04' W 093°25'2 4.8
2017-Nov-12 22:27N 30°04' W 093°27'4 4.7
2017-Nov-12 21:41N 30°04' W 093°31'68 4.2
2017-Nov-12 05:35N 29°28' W 094°39'1 3.4
2017-Nov-12 05:14N 29°28' W 094°40'1 2.8
2017-Nov-12 05:00N 29°27' W 094°41'1 2.7
2017-Nov-12 04:30N 29°27' W 094°42'2 3.0
2017-Nov-12 04:00N 29°26' W 094°43'8 4.1
2017-Nov-12 02:09N 29°21' W 094°50'  
Track history (hours):
 
Tides and Currents Weather Stations Pressure Air Temp Water Temp Dewpoint Dewpoint Depression Visibility Wind Speed Wind Dir Waves Ship Positions

Jerry Torok

Owner: American Commercial Lines LLC, Jeffersonville, IN. More information available from US FCC via Universal Licensing System and Coast Guard Vessel Documentation Center.

Last reported at 2017-Nov-14 19:30 UTC. Time now 2017-Nov-19 03:27 UTC.
Position N 29°33' W 090°28'.

Length 22 m.

Type: Tug. MMSI: 367703560.

Date/timePositionNaut miles runAvg speedWind from/ knotsBaromVisibWave heightAir tempDewpointWater temp
2017-Nov-14 19:30N 29°33' W 090°28'2 4.5
2017-Nov-14 19:00N 29°34' W 090°31'3 5.0
2017-Nov-14 18:30N 29°34' W 090°33'2 4.3
2017-Nov-14 18:00N 29°35' W 090°36'2 3.2
2017-Nov-14 17:30N 29°35' W 090°37'2 4.5
2017-Nov-14 17:00N 29°36' W 090°40'2 3.6
2017-Nov-14 16:30N 29°37' W 090°42'2 3.1
2017-Nov-14 16:00N 29°35' W 090°43'2 3.6
2017-Nov-14 15:30N 29°34' W 090°44'2 4.6
2017-Nov-14 15:00N 29°32' W 090°46'2 5.0
2017-Nov-14 14:30N 29°32' W 090°49'3 5.3
2017-Nov-14 13:59N 29°32' W 090°52'3 5.2
2017-Nov-14 13:30N 29°33' W 090°54'3 5.2
2017-Nov-14 12:52N 29°35' W 090°58'55 4.0
2017-Nov-13 23:11N 29°50' W 091°58'1 5.0
2017-Nov-13 22:59N 29°50' W 091°59'3 5.4
2017-Nov-13 22:30N 29°49' W 092°02'3 5.1
2017-Nov-13 22:00N 29°48' W 092°05'66 3.1
2017-Nov-13 00:25N 30°06' W 093°19'2 4.6
2017-Nov-12 23:57N 30°05' W 093°20'2 3.7
2017-Nov-12 23:29N 30°04' W 093°22'3 4.4
2017-Nov-12 22:49N 30°04' W 093°25'2 4.8
2017-Nov-12 22:27N 30°04' W 093°27'4 4.7
2017-Nov-12 21:41N 30°04' W 093°31'68 4.2
2017-Nov-12 05:35N 29°28' W 094°39'1 3.4
2017-Nov-12 05:14N 29°28' W 094°40'1 2.8
2017-Nov-12 05:00N 29°27' W 094°41'1 2.7
2017-Nov-12 04:30N 29°27' W 094°42'2 3.0
2017-Nov-12 04:00N 29°26' W 094°43'8 4.1
2017-Nov-12 02:09N 29°21' W 094°50'  

Dump ship's entire track history